Time;durP1;ratioP1;P1;durP2;ratioP2;P2;SDS_P1;SDS_P2;PMS_P1;PMS_P2;Temp;Humidity;BMP_temperature;BMP_pressure;BME280_temperature;BME280_humidity;BME280_pressure;Samples;Min_cycle;Max_cycle;Signal;HPM_P1;HPM_P2
2023/01/10 00:00:35;;;;;;;22.52;12.35;;;;;;;3.58;72.28;94026.00;4968696;28;20026;-71
2023/01/10 00:03:02;;;;;;;21.00;12.25;;;;;;;3.57;72.38;94017.47;4954689;28;20038;-71
2023/01/10 00:05:27;;;;;;;20.75;12.32;;;;;;;3.57;72.56;94032.06;4968990;28;20026;-71
2023/01/10 00:07:52;;;;;;;21.63;11.98;;;;;;;3.52;72.42;94023.84;4965804;28;20054;-71
2023/01/10 00:10:18;;;;;;;21.52;10.52;;;;;;;3.43;72.35;94015.03;4969719;28;20042;-70
2023/01/10 00:15:27;;;;;;;20.73;11.75;;;;;;;3.41;72.24;94010.91;4969892;28;20147;-70
2023/01/10 00:17:53;;;;;;;23.58;12.10;;;;;;;3.29;72.49;94008.25;4966693;28;20030;-70
2023/01/10 00:20:18;;;;;;;25.98;14.05;;;;;;;2.87;73.76;94012.75;4968367;28;20034;-70
2023/01/10 00:22:44;;;;;;;23.98;13.23;;;;;;;2.93;73.81;94011.50;4966890;28;20041;-70
2023/01/10 00:25:10;;;;;;;24.20;13.75;;;;;;;3.08;73.55;94014.81;4950916;28;20108;-70
2023/01/10 00:27:35;;;;;;;21.10;12.88;;;;;;;3.20;72.86;94029.38;4981306;28;20439;-70
2023/01/10 00:30:09;;;;;;;24.67;13.15;;;;;;;3.18;72.89;94026.13;4968496;28;20026;-71
2023/01/10 00:32:35;;;;;;;23.02;13.32;;;;;;;3.22;73.26;94021.59;4962629;28;20057;-70
2023/01/10 00:35:00;;;;;;;21.13;12.70;;;;;;;3.13;73.52;94011.00;4968524;28;20034;-70
2023/01/10 00:37:26;;;;;;;22.48;13.48;;;;;;;3.16;73.21;94009.16;4948522;28;20045;-71
2023/01/10 00:39:51;;;;;;;21.85;12.90;;;;;;;3.11;73.36;94009.47;4952355;28;20049;-70
2023/01/10 00:45:01;;;;;;;23.55;13.50;;;;;;;3.18;73.42;94002.19;4964377;28;20476;-71
2023/01/10 00:47:26;;;;;;;24.13;13.88;;;;;;;3.05;73.38;94000.44;4965610;28;20038;-71
2023/01/10 00:49:51;;;;;;;25.48;12.98;;;;;;;2.99;73.89;94000.84;4969338;28;20045;-71
2023/01/10 00:52:17;;;;;;;23.77;12.63;;;;;;;2.97;74.03;94005.25;4965364;28;20069;-70
2023/01/10 00:54:42;;;;;;;24.42;13.35;;;;;;;2.81;74.13;93989.22;4968243;28;20429;-71
2023/01/10 00:57:08;;;;;;;23.65;12.65;;;;;;;2.95;74.01;93980.59;4966164;28;20093;-70
2023/01/10 00:59:33;;;;;;;23.17;12.73;;;;;;;3.04;73.51;93983.41;4965901;28;20055;-70
2023/01/10 01:01:59;;;;;;;22.25;13.02;;;;;;;2.94;73.95;93971.28;4968756;28;20034;-71
2023/01/10 01:04:24;;;;;;;20.50;12.93;;;;;;;3.03;73.68;93984.31;4987057;28;20053;-71
2023/01/10 01:06:50;;;;;;;21.33;12.15;;;;;;;3.04;73.70;93996.22;4967666;28;20054;-71
2023/01/10 01:09:15;;;;;;;23.02;13.13;;;;;;;2.96;73.55;93975.38;4961714;28;20031;-70
2023/01/10 01:11:41;;;;;;;19.33;11.43;;;;;;;2.82;73.32;93970.34;4963617;28;20045;-70
2023/01/10 01:14:06;;;;;;;20.23;12.18;;;;;;;2.64;73.85;93973.19;4964139;28;20039;-70
2023/01/10 01:16:32;;;;;;;24.40;12.80;;;;;;;2.61;74.37;93980.25;4968039;28;20043;-70
2023/01/10 01:18:57;;;;;;;22.95;12.73;;;;;;;2.41;74.80;93961.84;4949771;28;20520;-71
2023/01/10 01:21:27;;;;;;;20.10;12.00;;;;;;;2.72;74.34;93980.38;4959478;28;20536;-70
2023/01/10 01:23:55;;;;;;;24.02;12.95;;;;;;;2.40;74.38;93962.78;4967241;28;20066;-70
2023/01/10 01:26:22;;;;;;;21.85;11.70;;;;;;;2.52;74.50;93980.84;4966819;28;20091;-70
2023/01/10 01:28:47;;;;;;;23.60;12.00;;;;;;;2.69;74.72;93996.78;4948205;28;20039;-71
2023/01/10 01:31:13;;;;;;;21.02;11.27;;;;;;;2.73;74.41;93996.59;4964090;28;20037;-71
2023/01/10 01:33:38;;;;;;;20.27;13.05;;;;;;;2.71;74.39;93990.75;4965854;28;20412;-71
2023/01/10 01:36:07;;;;;;;24.00;13.95;;;;;;;2.75;74.92;93993.00;4978274;28;20030;-70
2023/01/10 01:38:33;;;;;;;22.52;12.85;;;;;;;2.68;75.09;93978.94;4965550;28;20405;-70
2023/01/10 01:40:58;;;;;;;21.40;12.02;;;;;;;2.75;74.66;93982.75;4968220;28;20035;-71
2023/01/10 01:43:26;;;;;;;24.63;11.70;;;;;;;2.90;74.33;93970.66;4964946;28;20481;-70
2023/01/10 01:45:51;;;;;;;22.50;11.93;;;;;;;2.78;74.76;93964.56;4947059;29;20390;-70
2023/01/10 01:48:30;;;;;;;25.95;13.50;;;;;;;2.97;74.50;93953.94;4950020;28;20041;-70
2023/01/10 01:51:04;;;;;;;20.35;11.55;;;;;;;2.81;74.58;93959.25;4968036;28;20023;-70
2023/01/10 01:53:49;;;;;;;16.80;9.48;;;;;;;2.72;74.23;93949.59;4953076;29;20102;-71
2023/01/10 01:56:28;;;;;;;19.80;10.07;;;;;;;2.87;74.39;93961.44;4921237;29;20420;-71
2023/01/10 01:58:58;;;;;;;18.27;9.90;;;;;;;3.05;73.88;93971.38;4952095;28;20429;-70
2023/01/10 02:01:24;;;;;;;20.60;10.63;;;;;;;2.96;74.72;93956.63;4935762;29;20031;-71
2023/01/10 02:03:53;;;;;;;19.27;10.80;;;;;;;2.96;74.22;93948.91;4944187;28;20574;-70
2023/01/10 02:06:20;;;;;;;20.38;11.35;;;;;;;3.09;74.08;93955.69;4954982;28;20026;-70
2023/01/10 02:08:49;;;;;;;21.20;10.85;;;;;;;3.10;74.00;93956.50;4954927;28;20046;-70
2023/01/10 02:11:15;;;;;;;19.13;10.20;;;;;;;3.19;73.69;93955.06;4970100;28;20035;-71
2023/01/10 02:13:40;;;;;;;16.33;10.55;;;;;;;3.32;73.44;93953.31;4954560;28;20038;-70
2023/01/10 02:16:07;;;;;;;18.98;10.30;;;;;;;3.27;73.79;93933.06;4966413;28;20050;-72
2023/01/10 02:18:32;;;;;;;18.52;9.95;;;;;;;3.21;73.53;93896.75;4969237;28;20035;-70
2023/01/10 02:21:09;;;;;;;15.45;8.40;;;;;;;3.23;73.22;93895.72;4954148;28;20097;-70
2023/01/10 02:24:01;;;;;;;21.83;9.90;;;;;;;3.16;73.78;93898.81;4968574;28;20047;-70
2023/01/10 02:26:44;;;;;;;17.92;9.70;;;;;;;2.91;74.43;93892.75;4960483;28;20038;-71
2023/01/10 02:29:41;;;;;;;18.33;9.73;;;;;;;3.00;74.14;93887.00;4964363;28;20501;-70
2023/01/10 02:32:48;;;;;;;16.65;9.80;;;;;;;3.02;74.06;93894.63;4952334;28;20027;-70
2023/01/10 02:35:26;;;;;;;24.35;13.98;;;;;;;2.82;74.78;93895.97;4933073;29;20131;-70
2023/01/10 02:38:13;;;;;;;26.17;14.52;;;;;;;2.84;74.46;93906.91;4948604;28;20035;-70
2023/01/10 02:40:54;;;;;;;26.63;13.85;;;;;;;2.81;74.71;93907.13;4956061;28;20425;-70
2023/01/10 02:43:25;;;;;;;22.67;12.93;;;;;;;2.91;73.91;93897.91;4952685;28;20412;-71
2023/01/10 02:46:03;;;;;;;24.42;12.30;;;;;;;3.00;73.55;93889.56;4950831;28;20286;-70
2023/01/10 02:48:28;;;;;;;20.88;12.20;;;;;;;3.07;72.74;93898.50;4969926;28;20047;-70
2023/01/10 02:50:56;;;;;;;19.45;11.52;;;;;;;3.00;72.72;93915.22;4952401;28;20042;-70
2023/01/10 02:53:35;;;;;;;22.10;12.65;;;;;;;2.95;73.18;93908.75;4956481;28;20097;-70
2023/01/10 02:56:24;;;;;;;23.55;12.02;;;;;;;3.00;72.79;93904.16;4973069;28;20031;-70
2023/01/10 02:58:59;;;;;;;22.48;12.05;;;;;;;2.87;72.88;93904.16;4974087;28;20191;-70
2023/01/10 03:01:44;;;;;;;22.42;12.57;;;;;;;2.86;72.97;93923.03;4974268;28;20050;-70
2023/01/10 03:04:24;;;;;;;20.00;12.10;;;;;;;2.84;73.48;93928.28;4974189;28;20043;-70
2023/01/10 03:07:00;;;;;;;20.17;12.25;;;;;;;2.89;73.53;93922.81;4957986;28;20035;-70
2023/01/10 03:09:33;;;;;;;21.15;11.95;;;;;;;2.92;73.10;93912.34;4954933;29;20450;-70
2023/01/10 03:12:03;;;;;;;20.55;11.65;;;;;;;2.90;72.96;93916.78;4954419;29;20035;-70
2023/01/10 03:14:29;;;;;;;20.83;11.90;;;;;;;2.94;72.55;93899.44;4954707;28;20449;-71
2023/01/10 03:16:57;;;;;;;20.08;10.85;;;;;;;3.01;72.38;93914.31;4968431;28;20516;-70
2023/01/10 03:19:24;;;;;;;18.48;10.77;;;;;;;3.07;72.14;93920.78;4955644;28;20047;-71
2023/01/10 03:21:52;;;;;;;19.15;10.52;;;;;;;3.03;72.31;93914.19;4954741;29;20415;-71
2023/01/10 03:24:21;;;;;;;18.50;10.70;;;;;;;2.89;72.61;93898.00;4944539;28;20429;-70
2023/01/10 03:26:54;;;;;;;17.63;10.65;;;;;;;2.80;72.48;93916.56;4972358;28;20055;-70
2023/01/10 03:29:27;;;;;;;20.23;11.30;;;;;;;2.80;72.70;93928.59;4974684;28;20039;-71
2023/01/10 03:31:55;;;;;;;20.45;11.38;;;;;;;2.82;73.05;93929.31;4970002;28;20031;-70
2023/01/10 03:34:20;;;;;;;20.85;11.82;;;;;;;2.80;73.52;93934.53;4976704;28;20027;-71
2023/01/10 03:36:55;;;;;;;20.95;11.80;;;;;;;2.65;74.17;93938.13;4972619;28;20027;-70
2023/01/10 03:39:26;;;;;;;18.75;10.98;;;;;;;2.68;74.74;93936.16;4973617;28;20179;-70
2023/01/10 03:41:52;;;;;;;20.40;11.30;;;;;;;2.73;74.65;93935.03;4966331;28;20488;-70
2023/01/10 03:44:51;;;;;;;20.45;11.52;;;;;;;2.77;74.38;93939.03;4955736;28;20147;-70
2023/01/10 03:47:33;;;;;;;17.58;10.52;;;;;;;2.80;74.49;93952.47;4966145;28;20038;-71
2023/01/10 03:50:03;;;;;;;18.33;10.82;;;;;;;2.81;74.66;93937.91;4987596;28;20035;-70
2023/01/10 03:52:28;;;;;;;17.73;10.32;;;;;;;2.85;74.22;93937.63;4950918;28;20133;-71
2023/01/10 03:54:54;;;;;;;16.38;9.73;;;;;;;2.82;74.49;93944.69;4955254;28;20043;-71
2023/01/10 03:57:21;;;;;;;16.98;10.10;;;;;;;2.81;74.31;93933.59;4972269;28;20417;-71
2023/01/10 03:59:47;;;;;;;16.17;9.60;;;;;;;2.80;74.49;93920.88;4955190;28;20055;-70
2023/01/10 04:02:12;;;;;;;17.95;10.70;;;;;;;2.78;74.47;93912.47;4959174;28;20540;-70
2023/01/10 04:04:38;;;;;;;18.95;10.15;;;;;;;2.74;74.19;93914.41;4988435;28;20129;-70
2023/01/10 04:07:03;;;;;;;19.70;10.07;;;;;;;2.60;74.55;93902.50;4936926;29;20038;-70
2023/01/10 04:09:28;;;;;;;21.38;11.65;;;;;;;2.54;74.90;93873.91;4963571;28;20034;-70
2023/01/10 04:11:54;;;;;;;20.35;10.77;;;;;;;2.56;74.94;93875.41;4959186;28;20035;-70
2023/01/10 04:14:19;;;;;;;17.58;10.15;;;;;;;2.65;75.39;93868.88;4941276;29;20418;-70
2023/01/10 04:16:45;;;;;;;17.73;9.13;;;;;;;2.72;74.63;93869.28;4963902;28;20030;-70
2023/01/10 04:19:10;;;;;;;17.30;9.27;;;;;;;2.80;74.48;93877.28;4970052;28;20035;-70
2023/01/10 04:21:36;;;;;;;16.42;9.60;;;;;;;2.77;73.89;93864.66;4967126;28;20039;-70
2023/01/10 04:24:01;;;;;;;15.77;9.43;;;;;;;2.84;73.52;93860.75;4941247;28;20031;-70
2023/01/10 04:26:27;;;;;;;13.77;8.45;;;;;;;2.86;73.22;93866.59;4956100;28;20035;-71
2023/01/10 04:28:52;;;;;;;16.77;8.82;;;;;;;2.86;72.88;93898.19;4986686;28;20504;-70
2023/01/10 04:31:17;;;;;;;14.10;9.07;;;;;;;2.73;73.41;93901.69;4949948;29;20031;-70
2023/01/10 04:33:43;;;;;;;15.20;8.38;;;;;;;2.71;73.60;93931.75;4926280;28;20497;-70
2023/01/10 04:36:08;;;;;;;18.42;10.65;;;;;;;2.47;74.53;93937.56;4971997;28;20078;-70
2023/01/10 04:38:34;;;;;;;18.05;10.73;;;;;;;2.57;74.88;93935.22;4960184;28;20043;-70
2023/01/10 04:40:59;;;;;;;26.92;16.52;;;;;;;2.55;75.25;93940.44;4962623;28;20105;-70
2023/01/10 04:43:25;;;;;;;23.92;14.57;;;;;;;2.64;75.43;93952.66;4988091;28;20050;-70
2023/01/10 04:45:50;;;;;;;19.55;11.93;;;;;;;2.75;75.17;93941.69;4968356;28;20035;-70
2023/01/10 04:48:17;;;;;;;18.92;9.52;;;;;;;2.59;75.60;93934.22;4968866;28;20027;-70
2023/01/10 04:50:42;;;;;;;16.80;9.02;;;;;;;2.56;75.86;93941.25;4951412;28;20035;-70
2023/01/10 04:53:08;;;;;;;16.92;8.98;;;;;;;2.68;75.99;93943.03;4936395;29;20435;-70
2023/01/10 04:55:33;;;;;;;15.30;8.15;;;;;;;2.63;75.74;93934.81;4953878;28;20516;-71
2023/01/10 04:57:59;;;;;;;14.50;8.07;;;;;;;2.75;75.95;93940.88;4936484;29;20047;-70
2023/01/10 05:00:25;;;;;;;15.43;8.38;;;;;;;2.78;75.70;93930.41;4956905;28;20026;-70
2023/01/10 05:02:55;;;;;;;15.43;8.77;;;;;;;2.88;75.21;93934.84;4955714;28;20050;-71
2023/01/10 05:05:20;;;;;;;15.23;8.48;;;;;;;2.95;74.85;93917.28;4973337;28;20039;-71
2023/01/10 05:07:46;;;;;;;15.35;8.23;;;;;;;2.86;74.94;93907.66;4971634;28;20049;-71
2023/01/10 05:10:11;;;;;;;14.63;8.43;;;;;;;2.92;74.75;93896.97;4971896;28;20261;-70
2023/01/10 05:12:37;;;;;;;13.18;7.90;;;;;;;3.16;73.69;93893.66;4971562;28;20034;-70
2023/01/10 05:15:03;;;;;;;14.95;8.75;;;;;;;3.12;73.90;93883.63;4971711;28;20037;-70
2023/01/10 05:17:29;;;;;;;14.70;8.75;;;;;;;3.01;74.13;93868.13;4967964;28;20031;-70
2023/01/10 05:19:54;;;;;;;13.93;8.10;;;;;;;3.04;73.65;93849.97;4970743;28;20409;-71
2023/01/10 05:22:19;;;;;;;13.27;7.90;;;;;;;3.20;73.50;93852.28;4956293;28;20031;-70
2023/01/10 05:24:45;;;;;;;14.27;8.80;;;;;;;3.09;73.67;93867.59;4954333;28;20031;-70
2023/01/10 05:27:10;;;;;;;14.68;8.07;;;;;;;3.08;73.40;93877.03;4967179;28;20070;-70
2023/01/10 05:29:36;;;;;;;14.10;7.93;;;;;;;3.19;73.27;93891.72;4970969;28;20413;-70
2023/01/10 05:32:01;;;;;;;14.82;8.15;;;;;;;3.20;73.00;93903.59;4955733;28;20391;-70
2023/01/10 05:34:27;;;;;;;12.68;7.35;;;;;;;3.18;73.39;93907.22;4946903;29;20449;-70
2023/01/10 05:36:52;;;;;;;14.40;7.45;;;;;;;3.13;73.39;93898.09;4951991;28;20031;-70
2023/01/10 05:39:18;;;;;;;14.15;7.97;;;;;;;3.19;73.23;93898.59;4964155;28;20034;-71
2023/01/10 05:41:43;;;;;;;11.10;7.15;;;;;;;3.18;73.11;93896.97;4971809;28;20332;-70
2023/01/10 05:44:09;;;;;;;10.77;6.50;;;;;;;3.34;72.78;93918.91;4969664;28;20461;-70
2023/01/10 05:46:34;;;;;;;13.88;7.50;;;;;;;2.83;74.12;93877.88;4965904;28;20160;-71
2023/01/10 05:48:59;;;;;;;13.85;7.80;;;;;;;2.88;74.47;93891.22;4953490;28;20110;-70
2023/01/10 05:51:25;;;;;;;13.77;8.15;;;;;;;3.00;74.96;93910.09;4965734;28;20147;-70
2023/01/10 05:53:50;;;;;;;16.30;8.10;;;;;;;3.06;74.56;93890.91;4959305;28;20126;-70
2023/01/10 05:56:16;;;;;;;16.77;8.70;;;;;;;3.24;74.22;93906.81;4955650;28;20464;-70
2023/01/10 05:58:41;;;;;;;16.52;8.77;;;;;;;3.37;73.78;93910.16;4966018;28;20118;-70
2023/01/10 06:01:07;;;;;;;14.93;8.93;;;;;;;3.33;73.75;93906.16;4972166;28;20043;-70
2023/01/10 06:03:32;;;;;;;14.40;8.48;;;;;;;3.41;73.69;93916.72;4970923;28;20070;-70
2023/01/10 06:05:58;;;;;;;13.52;8.63;;;;;;;3.45;73.97;93910.44;4936960;29;20043;-71
2023/01/10 06:08:24;;;;;;;12.18;7.60;;;;;;;3.30;73.60;93884.09;4951597;29;20500;-70
2023/01/10 06:10:49;;;;;;;14.70;8.80;;;;;;;3.51;73.51;93910.03;4953640;28;20043;-70
2023/01/10 06:13:15;;;;;;;14.32;8.35;;;;;;;3.51;73.26;93904.06;4986821;28;20520;-70
2023/01/10 06:15:40;;;;;;;14.77;8.55;;;;;;;3.66;73.15;93922.72;4962216;28;20504;-70
2023/01/10 06:18:06;;;;;;;15.20;8.38;;;;;;;3.63;72.86;93917.81;4934067;28;20042;-71
2023/01/10 06:20:31;;;;;;;17.00;9.38;;;;;;;3.64;73.17;93914.31;4948169;28;20038;-70
2023/01/10 06:22:59;;;;;;;15.43;8.82;;;;;;;3.68;72.98;93910.63;4966177;28;20027;-70
2023/01/10 06:25:26;;;;;;;13.73;8.48;;;;;;;3.64;72.82;93911.75;4967397;28;20069;-70
2023/01/10 06:27:51;;;;;;;14.93;8.95;;;;;;;3.70;72.97;93908.72;4964950;28;20485;-70
2023/01/10 06:30:17;;;;;;;17.00;8.75;;;;;;;3.68;73.29;93913.19;4967818;28;20098;-71
2023/01/10 06:32:42;;;;;;;14.15;8.48;;;;;;;3.64;73.50;93924.59;4969533;28;20524;-71
2023/01/10 06:35:08;;;;;;;15.48;8.07;;;;;;;3.58;73.91;93916.38;4968436;28;20046;-70
2023/01/10 06:37:33;;;;;;;12.40;7.40;;;;;;;3.52;74.40;93916.81;4951963;28;20031;-70
2023/01/10 06:39:59;;;;;;;14.32;8.07;;;;;;;3.47;74.25;93908.59;4966667;28;20511;-70
2023/01/10 06:42:24;;;;;;;11.68;7.32;;;;;;;3.51;74.76;93915.19;4970914;28;20031;-70
2023/01/10 06:44:50;;;;;;;15.00;8.85;;;;;;;3.44;75.39;93911.38;4953494;28;20038;-70
2023/01/10 06:47:15;;;;;;;16.30;9.90;;;;;;;3.39;76.17;93910.06;4970373;28;20209;-70
2023/01/10 06:49:41;;;;;;;14.85;8.15;;;;;;;3.42;76.69;93910.66;4970810;28;20456;-70
2023/01/10 06:52:06;;;;;;;16.23;9.35;;;;;;;3.42;76.90;93904.69;4970339;28;20045;-70
2023/01/10 06:54:32;;;;;;;15.23;9.10;;;;;;;3.43;76.56;93902.03;4970248;28;20054;-70
2023/01/10 06:56:57;;;;;;;15.40;8.88;;;;;;;3.62;76.58;93908.44;4966542;28;20039;-70
2023/01/10 06:59:23;;;;;;;15.07;8.77;;;;;;;3.76;76.02;93893.72;4968202;28;20058;-72
2023/01/10 07:01:48;;;;;;;24.30;12.80;;;;;;;3.94;75.67;93901.06;4971983;28;20031;-70
2023/01/10 07:04:14;;;;;;;18.40;11.05;;;;;;;3.91;75.03;93898.72;4968086;28;20045;-70
2023/01/10 07:06:40;;;;;;;32.83;13.75;;;;;;;3.86;74.28;93896.44;4956632;28;20130;-71
2023/01/10 07:09:06;;;;;;;21.58;10.50;;;;;;;3.89;74.28;93892.84;4954930;28;20493;-70
2023/01/10 07:11:32;;;;;;;20.02;10.55;;;;;;;3.87;74.45;93899.84;4963884;28;20046;-71
2023/01/10 07:13:57;;;;;;;17.38;10.65;;;;;;;3.67;75.02;93881.50;4973186;28;20027;-71
2023/01/10 07:16:23;;;;;;;17.55;10.02;;;;;;;3.67;75.28;93886.66;4972196;28;20035;-70
2023/01/10 07:18:48;;;;;;;18.77;10.35;;;;;;;3.55;75.96;93890.91;4970202;28;20031;-71
2023/01/10 07:21:15;;;;;;;18.88;10.52;;;;;;;3.76;76.15;93898.03;4966313;28;20034;-70
2023/01/10 07:23:42;;;;;;;16.65;9.77;;;;;;;3.62;76.49;93896.41;4971926;28;20422;-71
2023/01/10 07:26:09;;;;;;;23.58;12.13;;;;;;;3.75;76.11;93891.25;4970599;28;20044;-70
2023/01/10 07:28:34;;;;;;;24.42;13.70;;;;;;;3.92;76.22;93893.44;4959708;28;20118;-71
2023/01/10 07:31:00;;;;;;;25.35;13.88;;;;;;;3.95;75.72;93880.38;4968294;28;20118;-71
2023/01/10 07:33:26;;;;;;;23.23;13.75;;;;;;;4.09;76.20;93883.69;4961330;28;20030;-70
2023/01/10 07:35:52;;;;;;;22.42;12.32;;;;;;;4.09;76.25;93876.81;4979393;28;20057;-70
2023/01/10 07:38:18;;;;;;;22.70;12.02;;;;;;;4.19;75.91;93882.13;4971759;28;20023;-70
2023/01/10 07:40:43;;;;;;;22.35;13.60;;;;;;;4.27;75.86;93891.84;4958266;28;20038;-70
2023/01/10 07:43:08;;;;;;;23.05;10.55;;;;;;;4.28;75.99;93884.00;4956449;28;20425;-70
2023/01/10 07:45:34;;;;;;;58.67;20.92;;;;;;;4.19;76.04;93875.22;4987336;28;20035;-70
2023/01/10 07:48:01;;;;;;;21.85;11.05;;;;;;;4.07;76.50;93862.41;4954475;28;20496;-70
2023/01/10 07:50:27;;;;;;;15.00;8.77;;;;;;;3.94;77.47;93870.22;4964203;28;20031;-70
2023/01/10 07:52:52;;;;;;;15.07;9.05;;;;;;;3.93;77.54;93866.84;4966712;28;20409;-70
2023/01/10 07:55:18;;;;;;;14.57;8.20;;;;;;;4.06;77.46;93871.88;4956808;28;20552;-71
2023/01/10 07:57:43;;;;;;;20.33;11.13;;;;;;;3.97;77.72;93855.38;4970565;28;20039;-71
2023/01/10 08:00:09;;;;;;;157.70;47.65;;;;;;;4.24;77.63;93865.41;4953213;29;20090;-71
2023/01/10 08:02:35;;;;;;;136.27;42.00;;;;;;;4.30;77.47;93866.72;4936651;28;20089;-71
2023/01/10 08:05:00;;;;;;;46.75;20.55;;;;;;;4.34;77.57;93875.03;4953858;29;20453;-71
2023/01/10 08:07:28;;;;;;;20.70;11.35;;;;;;;4.41;77.55;93877.03;4954872;28;20023;-71
2023/01/10 08:09:54;;;;;;;18.02;9.98;;;;;;;4.40;77.46;93854.00;4953718;29;20237;-71
2023/01/10 08:12:20;;;;;;;14.98;9.30;;;;;;;4.25;77.73;93840.53;4953448;28;20351;-71
2023/01/10 08:14:45;;;;;;;20.05;11.90;;;;;;;4.40;77.29;93851.44;4953591;29;20035;-71
2023/01/10 08:17:11;;;;;;;21.48;13.55;;;;;;;4.31;77.57;93841.81;4953457;28;20042;-71
2023/01/10 08:19:36;;;;;;;22.65;14.65;;;;;;;4.38;76.63;93843.84;4953657;28;20540;-71
2023/01/10 08:22:02;;;;;;;24.85;15.05;;;;;;;4.44;76.50;93853.66;4953542;29;20039;-71
2023/01/10 08:24:27;;;;;;;28.83;17.23;;;;;;;4.46;76.36;93843.28;4953651;28;20090;-71
2023/01/10 08:26:53;;;;;;;30.50;16.90;;;;;;;4.31;75.97;93806.66;4953435;28;20418;-71
2023/01/10 08:29:18;;;;;;;43.60;22.05;;;;;;;4.58;75.64;93829.50;4955009;28;20058;-71
2023/01/10 08:31:44;;;;;;;21.83;11.95;;;;;;;4.31;75.86;93810.97;4954388;28;20031;-71
2023/01/10 08:34:11;;;;;;;17.80;10.68;;;;;;;4.39;75.87;93836.94;4953188;28;20039;-71
2023/01/10 08:36:37;;;;;;;16.08;9.75;;;;;;;4.30;76.18;93835.88;4953197;29;20027;-71
2023/01/10 08:39:02;;;;;;;16.35;9.45;;;;;;;4.44;75.84;93832.28;4953314;28;20086;-70
2023/01/10 08:41:28;;;;;;;19.80;13.07;;;;;;;4.52;75.32;93818.84;4954370;28;20512;-71
2023/01/10 08:43:53;;;;;;;32.28;19.13;;;;;;;4.54;75.99;93809.25;4954152;28;20082;-71
2023/01/10 08:46:19;;;;;;;35.08;22.30;;;;;;;4.54;76.59;93796.38;4954561;28;20035;-71
2023/01/10 08:48:44;;;;;;;18.38;11.77;;;;;;;4.38;77.24;93797.56;4937021;28;20036;-71
2023/01/10 08:51:10;;;;;;;25.60;15.45;;;;;;;4.21;78.88;93798.00;4952990;29;20043;-71
2023/01/10 08:53:38;;;;;;;23.63;15.27;;;;;;;4.35;78.93;93796.97;4952610;28;20046;-71
2023/01/10 08:56:03;;;;;;;23.13;14.02;;;;;;;4.52;78.60;93793.13;4952894;29;20407;-71
2023/01/10 08:58:29;;;;;;;22.13;14.00;;;;;;;4.61;78.26;93795.00;4953826;28;20502;-71
2023/01/10 09:00:54;;;;;;;22.20;14.57;;;;;;;4.71;78.32;93790.81;4954314;28;20036;-71
2023/01/10 09:03:20;;;;;;;24.17;15.43;;;;;;;4.78;78.25;93797.09;4952653;29;20502;-71
2023/01/10 09:05:45;;;;;;;25.02;14.95;;;;;;;4.84;78.26;93794.06;4952743;29;20481;-71
2023/01/10 09:08:11;;;;;;;19.80;13.13;;;;;;;4.92;78.33;93790.91;4952565;29;20050;-71
2023/01/10 09:10:36;;;;;;;18.75;11.43;;;;;;;4.99;77.89;93765.53;4952637;29;20027;-71
2023/01/10 09:13:03;;;;;;;16.33;10.77;;;;;;;5.04;78.04;93774.53;4952396;28;20035;-71
2023/01/10 09:15:32;;;;;;;19.58;12.13;;;;;;;5.02;78.07;93775.59;4952574;29;20082;-71
2023/01/10 09:17:59;;;;;;;14.05;9.68;;;;;;;5.03;78.19;93783.19;4952608;28;20034;-71
2023/01/10 09:20:26;;;;;;;16.98;12.55;;;;;;;5.07;78.44;93774.28;4952429;29;20032;-71
2023/01/10 09:22:51;;;;;;;21.27;13.75;;;;;;;5.14;78.03;93780.59;4952334;29;20035;-71
2023/01/10 09:25:17;;;;;;;55.05;35.15;;;;;;;4.97;77.98;93755.34;4952418;29;20413;-71
2023/01/10 09:27:42;;;;;;;44.17;26.63;;;;;;;5.04;77.80;93774.53;4952224;29;20552;-71
2023/01/10 09:30:08;;;;;;;34.90;21.73;;;;;;;4.74;78.08;93770.00;4952245;29;20035;-71
2023/01/10 09:32:33;;;;;;;33.90;19.92;;;;;;;4.77;78.26;93774.91;4951929;28;20497;-71
2023/01/10 09:34:59;;;;;;;30.83;18.90;;;;;;;4.85;77.86;93759.69;4952267;28;20040;-71
2023/01/10 09:37:24;;;;;;;31.02;18.17;;;;;;;4.80;77.77;93735.25;4952074;28;20054;-71
2023/01/10 09:39:51;;;;;;;30.27;18.13;;;;;;;5.03;77.50;93756.63;4952097;29;20094;-71
2023/01/10 09:42:24;;;;;;;32.95;18.58;;;;;;;5.06;77.07;93746.09;4936240;29;20027;-71
2023/01/10 09:45:04;;;;;;;57.67;31.17;;;;;;;5.13;76.72;93742.09;4952099;29;20039;-71
2023/01/10 09:47:42;;;;;;;52.20;30.70;;;;;;;4.93;77.15;93739.34;4953114;28;20023;-71
2023/01/10 09:50:38;;;;;;;41.03;25.13;;;;;;;4.70;78.47;93729.97;4953187;28;20032;-71
2023/01/10 09:53:16;;;;;;;37.80;23.70;;;;;;;4.81;78.80;93732.53;4953355;28;20034;-71
2023/01/10 09:55:42;;;;;;;36.05;21.27;;;;;;;4.88;78.40;93731.16;4951861;29;20031;-71
2023/01/10 09:58:15;;;;;;;31.27;19.15;;;;;;;4.71;78.20;93685.31;4951466;28;20038;-71
2023/01/10 10:00:49;;;;;;;33.42;19.77;;;;;;;4.95;78.08;93725.50;4951813;29;20071;-71
2023/01/10 10:03:21;;;;;;;36.95;20.90;;;;;;;5.04;78.22;93725.63;4966252;28;20062;-71
2023/01/10 10:05:46;;;;;;;34.50;19.52;;;;;;;5.09;77.83;93712.38;4952057;28;20103;-71
2023/01/10 10:08:15;;;;;;;28.02;17.52;;;;;;;5.19;77.14;93707.34;4951587;29;20036;-71
2023/01/10 10:10:46;;;;;;;29.75;18.10;;;;;;;5.16;77.46;93703.25;4951637;29;20055;-72
2023/01/10 10:13:30;;;;;;;29.80;17.73;;;;;;;5.17;77.55;93712.59;4951537;29;20465;-71
2023/01/10 10:16:10;;;;;;;37.42;23.17;;;;;;;5.11;77.98;93723.38;4952820;28;20042;-71
2023/01/10 10:18:57;;;;;;;36.30;23.27;;;;;;;5.04;78.19;93715.34;4951585;28;20035;-71
2023/01/10 10:21:32;;;;;;;35.50;23.48;;;;;;;4.81;78.99;93711.16;4952838;28;20035;-71
2023/01/10 10:24:29;;;;;;;42.08;23.77;;;;;;;5.02;78.53;93719.78;4951779;28;20027;-71
2023/01/10 10:27:07;;;;;;;37.08;24.38;;;;;;;5.07;78.37;93717.66;4925016;29;20047;-71
2023/01/10 10:30:00;;;;;;;36.20;24.83;;;;;;;5.19;78.18;93705.56;4952231;28;20035;-71
2023/01/10 10:32:41;;;;;;;36.60;23.98;;;;;;;5.16;78.33;93698.09;4952451;28;20110;-71
2023/01/10 10:35:12;;;;;;;40.95;23.20;;;;;;;5.21;78.09;93706.28;4953275;28;20035;-71
2023/01/10 10:37:41;;;;;;;37.30;22.63;;;;;;;5.26;77.97;93696.41;4935605;28;20047;-71
2023/01/10 10:40:13;;;;;;;33.03;21.10;;;;;;;5.29;77.60;93697.91;4951317;28;20031;-71
2023/01/10 10:42:41;;;;;;;36.10;22.10;;;;;;;5.32;77.77;93698.50;4952497;28;20066;-71
2023/01/10 10:45:21;;;;;;;36.42;25.58;;;;;;;5.32;77.46;93693.38;4967485;28;20102;-71
2023/01/10 10:48:02;;;;;;;40.20;26.10;;;;;;;5.23;77.64;93676.03;4935237;28;20035;-71
2023/01/10 10:50:29;;;;;;;37.17;24.80;;;;;;;5.33;77.46;93683.88;4936072;28;20044;-71
2023/01/10 10:52:55;;;;;;;24.30;17.83;;;;;;;5.28;77.54;93679.06;4951158;28;20039;-71
2023/01/10 10:55:27;;;;;;;22.63;14.40;;;;;;;5.35;77.23;93679.44;4935337;28;20039;-71
2023/01/10 10:57:52;;;;;;;22.00;14.02;;;;;;;5.08;77.67;93672.94;4951138;28;20126;-71
2023/01/10 11:00:18;;;;;;;18.20;11.63;;;;;;;5.27;77.43;93689.53;4967188;28;20055;-71
2023/01/10 11:02:50;;;;;;;13.77;9.70;;;;;;;5.29;77.58;93680.72;4935215;28;20081;-71
2023/01/10 11:05:18;;;;;;;14.82;10.48;;;;;;;5.22;77.28;93661.56;4951448;28;20043;-71
2023/01/10 11:07:43;;;;;;;19.52;13.93;;;;;;;5.34;77.27;93662.31;4951349;28;20494;-71
2023/01/10 11:12:46;;;;;;;21.33;15.52;;;;;;;5.47;77.00;93657.81;4951148;28;20493;-71
2023/01/10 11:15:41;;;;;;;19.67;13.77;;;;;;;5.48;77.44;93662.00;4951236;28;20035;-71
2023/01/10 11:18:14;;;;;;;15.98;11.75;;;;;;;5.49;76.98;93652.53;4957604;28;20031;-71
2023/01/10 11:21:00;;;;;;;16.45;12.02;;;;;;;5.56;77.13;93656.25;4954666;29;20516;-71
2023/01/10 11:23:48;;;;;;;17.80;11.98;;;;;;;5.59;76.97;93653.41;4955716;28;20035;-71
2023/01/10 11:26:22;;;;;;;19.92;13.40;;;;;;;5.54;77.42;93663.28;4955375;28;20043;-71
2023/01/10 11:28:48;;;;;;;22.48;13.68;;;;;;;5.57;77.11;93663.88;4956024;28;20027;-71
2023/01/10 11:31:13;;;;;;;26.23;17.98;;;;;;;5.49;77.36;93655.09;4954390;28;20565;-72
2023/01/10 11:33:39;;;;;;;29.67;19.35;;;;;;;5.55;77.12;93658.00;4938273;29;20482;-71
2023/01/10 11:36:07;;;;;;;38.83;27.50;;;;;;;5.41;77.30;93642.06;4970393;28;20540;-71
2023/01/10 11:38:33;;;;;;;37.60;27.80;;;;;;;5.60;76.93;93652.50;4954295;28;20036;-71
2023/01/10 11:41:18;;;;;;;35.40;23.27;;;;;;;5.69;76.90;93651.72;4954304;29;20043;-71